Time;durP1;ratioP1;P1;durP2;ratioP2;P2;SDS_P1;SDS_P2;PMS_P1;PMS_P2;Temp;Humidity;BMP_temperature;BMP_pressure;BME280_temperature;BME280_humidity;BME280_pressure;Samples;Min_cycle;Max_cycle;Signal;HPM_P1;HPM_P2
2022/09/13 00:02:45;;;;;;;8.23;7.05;;;21.60;97.20;;;;;;5156129;23;20078;-96
2022/09/13 00:15:38;;;;;;;9.32;7.38;;;21.60;97.60;;;;;;4932532;26;20101;-96
2022/09/13 00:18:26;;;;;;;9.50;7.35;;;21.60;97.70;;;;;;4923944;29;20016;-96
2022/09/13 00:21:12;;;;;;;9.90;8.05;;;21.50;97.70;;;;;;4954599;28;20076;-96
2022/09/13 00:23:58;;;;;;;12.65;8.25;;;21.50;97.70;;;;;;5303745;23;20232;-93
2022/09/13 00:39:32;;;;;;;9.32;7.60;;;21.40;98.20;;;;;;4918323;26;20057;-93
2022/09/13 00:42:10;;;;;;;9.52;8.15;;;21.40;98.30;;;;;;4906218;29;20035;-96
2022/09/13 00:45:04;;;;;;;11.57;8.30;;;21.40;98.30;;;;;;5353339;23;20108;-96
2022/09/13 00:50:18;;;;;;;;;;;;;;;;;;;;;
2022/09/13 00:53:24;;;;;;;11.48;9.02;;;21.30;98.40;;;;;;5709671;23;20033;-95
2022/09/13 01:03:47;;;;;;;10.52;8.13;;;21.30;98.70;;;;;;5837081;23;20059;-95
2022/09/13 01:38:26;;;;;;;8.60;6.88;;;21.20;99.50;;;;;;4899094;29;20044;-96
2022/09/13 01:41:23;;;;;;;10.82;8.52;;;21.20;99.60;;;;;;4880127;29;20041;-96
2022/09/13 01:44:23;;;;;;;11.07;8.80;;;21.20;99.70;;;;;;4887262;29;20029;-96
2022/09/13 01:47:21;;;;;;;11.43;9.15;;;21.10;99.70;;;;;;4962539;23;20037;-96
2022/09/13 01:51:01;;;;;;;11.48;9.05;;;21.10;99.50;;;;;;5040561;23;20111;-96
2022/09/13 01:58:33;;;;;;;11.07;9.32;;;21.00;99.70;;;;;;4956302;28;20040;-96
2022/09/13 02:01:26;;;;;;;12.00;9.05;;;21.00;99.70;;;;;;4939642;29;20111;-96
2022/09/13 02:04:19;;;;;;;10.13;8.65;;;21.00;99.80;;;;;;4946117;29;20035;-96
2022/09/13 02:10:31;;;;;;;10.63;9.10;;;21.00;99.90;;;;;;5199134;23;20415;-96
2022/09/13 02:13:20;;;;;;;10.25;9.15;;;21.00;99.90;;;;;;4941356;29;20046;-95
2022/09/13 02:16:07;;;;;;;10.18;9.07;;;21.00;99.90;;;;;;4951016;29;20491;-95
2022/09/13 02:27:08;;;;;;;11.85;9.57;;;20.90;99.90;;;;;;4943585;29;20032;-94
2022/09/13 02:35:49;;;;;;;12.43;9.73;;;20.90;99.90;;;;;;5995437;23;20026;31
2022/09/13 02:38:58;;;;;;;11.55;9.55;;;20.80;99.90;;;;;;4902464;29;20057;-96
2022/09/13 02:41:38;;;;;;;10.93;9.80;;;20.80;99.90;;;;;;4962666;23;20063;-95
2022/09/13 02:44:39;;;;;;;11.13;9.98;;;20.80;99.90;;;;;;4944497;28;20136;-96
2022/09/13 02:47:23;;;;;;;12.05;10.07;;;20.80;99.90;;;;;;4929029;29;20063;-96
2022/09/13 02:49:57;;;;;;;11.88;10.15;;;20.80;99.90;;;;;;4950503;23;20056;-96
2022/09/13 02:52:32;;;;;;;12.10;9.45;;;20.80;99.90;;;;;;4911994;29;20494;-95
2022/09/13 02:55:25;;;;;;;10.85;9.75;;;20.80;99.90;;;;;;4916343;29;20036;-96
2022/09/13 02:58:03;;;;;;;13.05;9.63;;;20.80;99.90;;;;;;4915323;29;20405;-96
2022/09/13 03:00:38;;;;;;;11.40;9.85;;;20.70;99.90;;;;;;4914689;29;20056;-96
2022/09/13 03:03:33;;;;;;;;;;;;;;;;;;;;;
2022/09/13 03:06:12;;;;;;;11.13;9.40;;;20.80;99.90;;;;;;4919624;29;20071;-96
2022/09/13 03:08:58;;;;;;;;;;;;;;;;;;;;;
2022/09/13 03:51:00;;;;;;;14.88;10.95;;;20.50;99.90;;;;;;5639053;23;21276;31
2022/09/13 03:53:43;;;;;;;13.85;10.43;;;20.50;99.90;;;;;;4885601;29;19968;-95
2022/09/13 04:26:52;;;;;;;;;;;;;;;;;;;;;
2022/09/13 04:53:02;;;;;;;13.38;11.98;;;20.30;99.90;;;;;;4939401;23;20067;-95
2022/09/13 04:55:40;;;;;;;15.80;12.13;;;20.30;99.90;;;;;;4937356;29;20023;-96
2022/09/13 05:00:56;;;;;;;;;;;;;;;;;;;;;
2022/09/13 05:06:27;;;;;;;;;;;;;;;;;;;;;
2022/09/13 05:08:54;;;;;;;15.07;12.35;;;20.20;99.90;;;;;;4938168;29;20060;-96
2022/09/13 05:11:36;;;;;;;12.88;11.32;;;20.20;99.90;;;;;;4916836;29;20008;-96
2022/09/13 05:14:28;;;;;;;13.65;11.32;;;20.20;99.90;;;;;;4922770;29;20068;-96
2022/09/13 05:24:51;;;;;;;14.23;11.50;;;20.20;99.90;;;;;;4944846;23;20076;-95
2022/09/13 05:27:29;;;;;;;;;;;;;;;;;;;;;
2022/09/13 05:33:01;;;;;;;;;;;;;;;;;;;;;
2022/09/13 05:40:59;;;;;;;13.52;10.65;;;20.20;99.90;;;;;;5303864;23;20060;-95
2022/09/13 05:47:07;;;;;;;14.93;11.85;;;20.20;99.90;;;;;;5354317;23;20029;-94
2022/09/13 05:52:36;;;;;;;12.32;10.73;;;20.20;99.90;;;;;;5248923;23;20083;-96
2022/09/13 05:55:33;;;;;;;16.27;11.73;;;20.20;99.90;;;;;;4924311;28;20020;-95
2022/09/13 06:39:36;;;;;;;15.77;12.32;;;20.30;99.90;;;;;;4920516;27;20053;-96
2022/09/13 06:44:58;;;;;;;13.82;11.85;;;20.30;99.90;;;;;;5074526;23;20042;-95
2022/09/13 06:47:47;;;;;;;16.23;13.02;;;20.30;99.90;;;;;;4924623;29;20079;-96
2022/09/13 06:50:44;;;;;;;16.70;13.65;;;20.30;99.90;;;;;;4913084;29;20103;-96
2022/09/13 06:53:33;;;;;;;16.65;13.10;;;20.30;99.90;;;;;;4935692;29;20016;-96
2022/09/13 06:56:31;;;;;;;17.13;13.10;;;20.30;99.90;;;;;;4936858;29;20040;-96
2022/09/13 06:59:07;;;;;;;15.35;13.15;;;20.30;99.90;;;;;;4920588;29;20084;-96
2022/09/13 07:01:42;;;;;;;17.83;13.27;;;20.30;99.90;;;;;;4919901;29;20028;-96
2022/09/13 07:04:30;;;;;;;16.70;13.55;;;20.30;99.90;;;;;;4904834;29;20070;-96
2022/09/13 07:07:08;;;;;;;;;;;;;;;;;;;;;
2022/09/13 07:09:42;;;;;;;17.05;13.95;;;20.40;99.90;;;;;;4938279;29;20048;-96
2022/09/13 07:12:18;;;;;;;18.63;14.43;;;20.40;99.90;;;;;;4922800;29;20028;-95
2022/09/13 07:14:48;;;;;;;16.98;14.48;;;20.40;99.90;;;;;;4938561;29;20059;-96
2022/09/13 07:20:31;;;;;;;18.60;14.25;;;20.40;99.90;;;;;;4933737;29;20040;-96
2022/09/13 07:22:57;;;;;;;17.98;15.00;;;20.50;99.90;;;;;;4922519;29;20040;-96
2022/09/13 07:25:31;;;;;;;19.60;16.08;;;20.50;99.90;;;;;;4937100;29;20051;-96
2022/09/13 07:28:19;;;;;;;18.50;14.88;;;20.50;99.90;;;;;;4919582;29;20051;-95
2022/09/13 07:31:22;;;;;;;;;;;;;;;;;;;;;
2022/09/13 07:34:12;;;;;;;22.13;15.73;;;20.60;99.90;;;;;;4936527;29;20048;-96
2022/09/13 07:36:45;;;;;;;20.88;14.63;;;20.60;99.90;;;;;;4920735;29;20048;-96
2022/09/13 07:39:14;;;;;;;21.90;16.25;;;20.60;99.90;;;;;;4919586;29;20028;-96
2022/09/13 07:41:46;;;;;;;19.60;16.63;;;20.60;99.90;;;;;;4921326;29;20039;-95
2022/09/13 07:44:22;;;;;;;25.38;18.48;;;20.70;99.90;;;;;;4920749;28;20039;-95
2022/09/13 07:46:59;;;;;;;22.08;17.58;;;20.70;99.90;;;;;;4920517;28;20044;-96
2022/09/13 07:49:57;;;;;;;22.52;16.83;;;20.70;99.90;;;;;;4921376;29;20118;-96
2022/09/13 07:52:40;;;;;;;;;;;;;;;;;;;;;
2022/09/13 07:55:27;;;;;;;20.60;16.77;;;20.80;99.90;;;;;;4937481;29;20064;-93
2022/09/13 07:57:55;;;;;;;21.25;16.38;;;20.80;99.90;;;;;;4920327;29;20100;-96
2022/09/13 08:00:25;;;;;;;21.63;17.05;;;20.80;99.90;;;;;;4923722;29;20016;-96
2022/09/13 08:02:56;;;;;;;20.50;15.75;;;20.90;99.90;;;;;;5253274;23;20074;-95
2022/09/13 08:05:32;;;;;;;22.17;15.27;;;20.90;99.90;;;;;;4884688;29;20052;-96
2022/09/13 08:08:06;;;;;;;18.02;13.82;;;21.00;99.90;;;;;;4896370;29;20048;-96
2022/09/13 08:10:43;;;;;;;17.48;12.85;;;21.00;99.90;;;;;;4897455;29;20068;-96
2022/09/13 08:13:14;;;;;;;18.25;12.43;;;21.10;99.90;;;;;;4896271;29;20028;-95
2022/09/13 08:15:43;;;;;;;17.52;12.65;;;21.10;99.90;;;;;;4895318;29;20032;-96
2022/09/13 08:18:09;;;;;;;16.48;11.98;;;21.20;99.90;;;;;;4893547;29;20037;-95
2022/09/13 08:20:38;;;;;;;16.77;11.18;;;21.20;99.90;;;;;;4891465;29;20029;-96
2022/09/13 08:23:08;;;;;;;13.80;10.48;;;21.30;99.90;;;;;;4906725;29;20038;-96
2022/09/13 08:25:41;;;;;;;13.45;10.10;;;21.30;99.90;;;;;;4890643;29;20036;-96
2022/09/13 08:28:26;;;;;;;14.57;9.82;;;21.40;99.90;;;;;;4889611;29;20084;-96
2022/09/13 08:31:22;;;;;;;11.93;7.80;;;21.50;99.90;;;;;;4905393;29;20370;-95
2022/09/13 08:33:58;;;;;;;9.05;7.20;;;21.50;99.90;;;;;;4890586;29;20020;-96
2022/09/13 08:36:48;;;;;;;9.27;6.28;;;21.60;99.90;;;;;;4901774;29;20029;-96
2022/09/13 08:42:38;;;;;;;8.93;5.40;;;21.70;99.90;;;;;;4896687;29;20112;-96
2022/09/13 08:45:07;;;;;;;8.45;5.82;;;21.70;99.90;;;;;;4902048;29;20042;-96
2022/09/13 08:47:55;;;;;;;7.50;5.57;;;21.80;99.90;;;;;;4900736;29;20081;-96
2022/09/13 08:50:31;;;;;;;10.43;5.20;;;21.90;99.90;;;;;;4901239;29;20028;-96
2022/09/13 08:53:29;;;;;;;9.27;6.25;;;21.90;99.90;;;;;;4895230;29;20025;-96
2022/09/13 08:56:26;;;;;;;10.00;6.15;;;21.90;99.90;;;;;;4894279;29;20028;-96
2022/09/13 08:59:16;;;;;;;11.82;6.20;;;22.00;99.90;;;;;;4893687;29;20032;-96
2022/09/13 09:02:05;;;;;;;9.15;6.03;;;22.10;99.90;;;;;;4894084;29;20028;-96
2022/09/13 09:04:37;;;;;;;8.35;6.22;;;22.10;99.90;;;;;;4894423;29;20049;-96
2022/09/13 09:07:08;;;;;;;9.02;6.60;;;22.20;99.90;;;;;;4892756;29;20021;-96
2022/09/13 09:09:43;;;;;;;;;;;22.20;99.90;;;;;;4909791;29;20147;-96
2022/09/13 09:12:36;;;;;;;11.70;8.27;;;22.30;99.90;;;;;;4894959;29;19986;-96
2022/09/13 09:15:16;;;;;;;13.45;8.95;;;22.30;99.90;;;;;;4909878;29;20060;-96
2022/09/13 09:17:49;;;;;;;13.75;8.90;;;22.30;99.90;;;;;;4898032;29;20025;-96
2022/09/13 09:20:42;;;;;;;16.05;9.45;;;22.40;99.90;;;;;;4901782;29;20025;-95
2022/09/13 09:23:21;;;;;;;18.58;9.80;;;22.40;99.90;;;;;;4898629;29;20040;-96
2022/09/13 09:26:03;;;;;;;;;;;;;;;;;;;;;
2022/09/13 09:28:51;;;;;;;12.63;10.30;;;22.50;99.90;;;;;;4917387;29;20048;-96
2022/09/13 09:31:50;;;;;;;12.48;10.07;;;22.50;99.90;;;;;;4901177;29;20029;-96
2022/09/13 09:34:24;;;;;;;13.30;9.50;;;22.50;99.90;;;;;;4921321;29;20048;-96
2022/09/13 09:37:29;;;;;;;14.27;10.18;;;22.60;99.90;;;;;;5073213;23;20065;-96
2022/09/13 09:40:06;;;;;;;15.80;9.88;;;22.60;99.90;;;;;;4880239;29;20044;-96
2022/09/13 09:42:44;;;;;;;12.68;9.60;;;22.60;99.90;;;;;;4881958;29;20033;-96
2022/09/13 09:45:56;;;;;;;10.10;8.25;;;22.70;99.90;;;;;;5001407;23;20063;-96
2022/09/13 09:48:34;;;;;;;13.05;8.85;;;22.70;99.90;;;;;;4938270;28;20047;-95
2022/09/13 09:51:19;;;;;;;;;;;;;;;;;;;;;
2022/09/13 09:53:54;;;;;;;11.10;8.57;;;22.80;99.90;;;;;;4906646;29;20025;-96
2022/09/13 09:57:01;;;;;;;;;;;;;;;;;;;;;
2022/09/13 09:59:33;;;;;;;13.02;8.30;;;22.80;99.90;;;;;;4905550;29;20063;-96
2022/09/13 10:02:03;;;;;;;10.38;7.57;;;22.80;99.90;;;;;;4902735;29;20029;-96
2022/09/13 10:04:51;;;;;;;;;;;;;;;;;;;;;
2022/09/13 10:07:34;;;;;;;;;;;;;;;;;;;;;
2022/09/13 10:10:32;;;;;;;10.02;6.65;;;22.90;99.90;;;;;;4899095;29;20049;-96
2022/09/13 10:13:01;;;;;;;12.30;6.55;;;22.90;99.90;;;;;;4899123;29;20051;-96
2022/09/13 11:33:13;;;;;;;5.57;2.20;;;24.20;99.90;;;;;;4899017;29;20344;-96
2022/09/13 11:36:23;;;;;;;6.43;1.90;;;24.30;99.90;;;;;;4984963;23;20049;-96
2022/09/13 11:39:21;;;;;;;6.07;2.20;;;24.30;99.90;;;;;;4864779;29;20044;-96
2022/09/13 11:42:16;;;;;;;4.80;2.25;;;24.30;99.90;;;;;;4867743;29;20093;-96
2022/09/13 11:48:39;;;;;;;4.18;1.80;;;24.40;99.90;;;;;;4890109;29;20037;-96
2022/09/13 11:51:24;;;;;;;6.30;1.70;;;24.40;99.90;;;;;;4898178;29;20041;-96
2022/09/13 11:54:27;;;;;;;4.47;1.60;;;24.40;99.90;;;;;;4897168;29;20048;-96
2022/09/13 11:57:15;;;;;;;4.10;1.60;;;24.40;99.80;;;;;;4901150;29;20104;-96
2022/09/13 11:59:48;;;;;;;2.97;1.42;;;24.40;99.70;;;;;;4897011;29;20037;-96
2022/09/13 12:02:32;;;;;;;4.80;1.60;;;24.40;99.40;;;;;;4898458;29;20021;-96
2022/09/13 12:05:14;;;;;;;3.10;1.23;;;24.40;99.10;;;;;;4900684;29;20044;-96
2022/09/13 12:11:32;;;;;;;3.03;1.08;;;24.50;99.40;;;;;;4894195;29;20017;-96
2022/09/13 12:14:27;;;;;;;3.78;1.48;;;24.60;99.30;;;;;;4885500;29;20064;-96
2022/09/13 12:17:05;;;;;;;2.42;0.95;;;24.70;99.00;;;;;;4898239;29;20096;-96
2022/09/13 12:19:53;;;;;;;2.63;1.15;;;24.80;98.70;;;;;;4892592;29;20040;-96
2022/09/13 12:22:30;;;;;;;4.75;1.38;;;24.80;98.50;;;;;;4894702;29;20032;-96
2022/09/13 12:27:47;;;;;;;1.80;1.00;;;24.80;98.10;;;;;;4940766;27;20068;-96
2022/09/13 12:33:45;;;;;;;2.08;0.90;;;24.90;98.00;;;;;;4940769;28;20024;-96
2022/09/13 12:37:05;;;;;;;3.65;1.15;;;25.00;98.00;;;;;;4922882;29;20028;-96
2022/09/13 12:39:52;;;;;;;2.38;1.30;;;25.10;97.90;;;;;;4880254;29;20043;-96
2022/09/13 12:42:23;;;;;;;2.50;0.93;;;25.10;97.80;;;;;;4919422;29;20028;-96
2022/09/13 12:45:32;;;;;;;2.67;0.85;;;25.10;97.50;;;;;;4919694;29;20040;-95
2022/09/13 12:48:14;;;;;;;2.78;1.30;;;25.20;97.50;;;;;;4922659;29;20012;-96
2022/09/13 12:51:24;;;;;;;2.03;0.95;;;25.30;97.40;;;;;;4948182;23;20135;-96
2022/09/13 12:54:32;;;;;;;1.53;0.80;;;25.30;97.20;;;;;;4911775;29;20044;-96
2022/09/13 13:08:39;;;;;;;1.48;0.80;;;25.70;96.30;;;;;;5270338;23;20120;-96
2022/09/13 13:11:36;;;;;;;1.77;1.10;;;25.70;96.00;;;;;;4921524;29;20596;-96
2022/09/13 13:14:42;;;;;;;3.67;1.00;;;25.80;95.80;;;;;;5271398;23;20114;-96
2022/09/13 13:40:20;;;;;;;;;;;;;;;;;;;;;
2022/09/13 13:49:44;;;;;;;2.20;1.30;;;26.20;93.80;;;;;;5378286;23;20170;-94
2022/09/13 13:52:23;;;;;;;3.92;1.48;;;26.20;93.00;;;;;;4880885;29;20083;-95
2022/09/13 13:55:37;;;;;;;;;;;;;;;;;;;;;
2022/09/13 14:01:28;;;;;;;3.15;0.88;;;26.20;93.20;;;;;;4884363;29;20033;-96
2022/09/13 14:04:39;;;;;;;2.45;0.98;;;26.20;92.70;;;;;;4898519;29;20029;-96
2022/09/13 14:07:30;;;;;;;4.57;1.10;;;26.10;93.00;;;;;;4899836;29;20036;-96
2022/09/13 14:10:12;;;;;;;4.05;1.20;;;26.20;93.20;;;;;;4898572;29;20013;-96
2022/09/13 14:13:02;;;;;;;3.75;1.45;;;26.20;93.00;;;;;;4900138;29;20010;-96
2022/09/13 14:18:34;;;;;;;4.10;1.05;;;26.20;92.80;;;;;;4977182;23;20067;-96
2022/09/13 14:21:36;;;;;;;3.63;1.10;;;26.10;92.70;;;;;;3437646;23;20236;-92
2022/09/13 14:37:47;;;;;;;3.53;1.00;;;26.20;91.90;;;;;;1490415;23;20434;-94
2022/09/13 14:40:42;;;;;;;2.15;1.08;;;26.20;91.70;;;;;;5134253;23;20034;-96
2022/09/13 14:43:53;;;;;;;3.67;1.27;;;26.20;91.90;;;;;;5254443;23;20063;-95
2022/09/13 14:46:56;;;;;;;3.10;1.08;;;26.20;91.40;;;;;;4906297;29;20043;-96
2022/09/13 14:55:20;;;;;;;4.35;1.23;;;26.20;91.50;;;;;;5005359;23;20274;-95
2022/09/13 14:58:15;;;;;;;5.38;1.40;;;26.20;91.50;;;;;;4907424;29;20016;-96
2022/09/13 15:01:27;;;;;;;2.78;1.08;;;26.20;91.20;;;;;;4907823;29;20021;-96
2022/09/13 15:03:59;;;;;;;4.40;1.05;;;26.20;91.30;;;;;;5060732;23;20105;-96
2022/09/13 15:06:34;;;;;;;3.75;1.50;;;26.20;91.30;;;;;;4909779;29;20052;-96
2022/09/13 15:09:46;;;;;;;4.55;1.17;;;26.20;91.00;;;;;;5311287;23;20093;-95
2022/09/13 15:12:30;;;;;;;3.90;1.33;;;26.20;90.70;;;;;;4898534;29;20089;-96
2022/09/13 15:18:16;;;;;;;;;;;;;;;;;;;;;
2022/09/13 15:21:07;;;;;;;3.35;1.08;;;26.20;90.30;;;;;;4967562;23;20038;-95
2022/09/13 15:23:51;;;;;;;3.88;1.20;;;26.10;90.00;;;;;;4925654;29;20042;-96
2022/09/13 15:26:27;;;;;;;4.45;1.20;;;26.10;89.60;;;;;;4915908;29;20136;-96
2022/09/13 15:29:04;;;;;;;2.90;1.15;;;26.10;89.20;;;;;;4931038;29;20039;-96
2022/09/13 15:31:34;;;;;;;3.30;1.25;;;26.10;89.70;;;;;;4913714;29;20119;-96
2022/09/13 15:34:20;;;;;;;3.83;1.20;;;26.10;89.90;;;;;;4913481;29;20064;-96
2022/09/13 15:36:52;;;;;;;2.80;1.20;;;26.10;90.10;;;;;;4913508;29;20054;-96
2022/09/13 15:39:23;;;;;;;4.90;1.50;;;26.10;90.00;;;;;;4921024;29;20040;-96
2022/09/13 15:42:02;;;;;;;4.70;1.50;;;26.10;90.20;;;;;;4922022;29;20008;-96
2022/09/13 15:48:34;;;;;;;;;;;;;;;;;;;;;
2022/09/13 15:51:35;;;;;;;3.90;1.02;;;26.10;90.40;;;;;;4946297;23;20077;-96
2022/09/13 15:54:10;;;;;;;2.95;1.23;;;26.10;90.50;;;;;;4915661;29;20045;-96
2022/09/13 15:57:09;;;;;;;9.18;1.80;;;26.10;90.40;;;;;;4895245;29;20474;-96
2022/09/13 15:59:44;;;;;;;2.05;1.05;;;26.10;90.30;;;;;;4895401;29;20044;-96
2022/09/13 16:02:53;;;;;;;4.80;1.63;;;26.10;90.10;;;;;;4895118;29;20496;-96
2022/09/13 16:05:22;;;;;;;2.65;0.80;;;26.10;89.20;;;;;;4875861;29;20055;-96
2022/09/13 16:07:52;;;;;;;3.25;0.95;;;26.10;88.90;;;;;;4910765;29;20117;-96
2022/09/13 16:10:22;;;;;;;2.60;1.00;;;26.00;88.20;;;;;;4892865;29;20028;-96
2022/09/13 16:12:53;;;;;;;4.13;1.08;;;26.00;87.60;;;;;;4894069;29;20119;-96
2022/09/13 16:15:22;;;;;;;6.30;1.15;;;26.00;87.00;;;;;;4908403;29;20041;-96
2022/09/13 16:17:48;;;;;;;4.57;1.20;;;25.90;87.00;;;;;;4891534;29;20036;-96
2022/09/13 16:20:24;;;;;;;3.80;0.90;;;25.90;86.80;;;;;;4891648;29;20028;-96
2022/09/13 16:22:50;;;;;;;3.65;1.00;;;25.90;86.40;;;;;;4891470;29;20031;-96
2022/09/13 16:25:18;;;;;;;2.65;0.85;;;25.90;86.10;;;;;;4891829;29;20033;-96
2022/09/13 16:27:53;;;;;;;2.90;0.93;;;25.90;86.00;;;;;;4892547;29;20025;-96
2022/09/13 16:30:22;;;;;;;5.18;1.20;;;25.80;86.00;;;;;;4891355;29;20025;-96
2022/09/13 16:32:48;;;;;;;3.35;1.13;;;25.70;85.80;;;;;;4892672;29;20088;-96
2022/09/13 16:35:15;;;;;;;2.33;1.00;;;25.70;85.80;;;;;;4892469;29;20051;-96
2022/09/13 16:37:53;;;;;;;2.42;0.90;;;25.70;85.60;;;;;;4890750;29;20048;-96
2022/09/13 16:40:20;;;;;;;3.78;1.10;;;25.70;85.70;;;;;;4906977;29;20029;-96
2022/09/13 16:42:48;;;;;;;3.72;1.05;;;25.60;85.30;;;;;;4890189;29;20387;-96
2022/09/13 16:45:17;;;;;;;4.88;1.25;;;25.60;85.60;;;;;;4889606;29;20126;-96
2022/09/13 16:47:52;;;;;;;;;;;;;;;;;;;;;
2022/09/13 16:50:18;;;;;;;2.92;1.60;;;25.60;84.90;;;;;;4904953;29;20154;-96
2022/09/13 16:52:48;;;;;;;6.43;1.40;;;25.50;84.80;;;;;;4888754;29;20075;-95
2022/09/13 16:55:14;;;;;;;2.60;0.75;;;25.50;84.90;;;;;;4887299;29;20088;-95
2022/09/13 16:57:41;;;;;;;7.07;1.50;;;25.50;85.10;;;;;;4888540;29;20040;-95
2022/09/13 17:00:10;;;;;;;4.88;1.40;;;25.50;85.20;;;;;;4887890;29;20115;-96
2022/09/13 17:02:37;;;;;;;5.03;1.50;;;25.40;84.80;;;;;;4888924;29;20027;-96
2022/09/13 17:05:07;;;;;;;4.03;1.02;;;25.40;84.80;;;;;;4896430;29;20048;-96
2022/09/13 17:07:35;;;;;;;3.27;1.17;;;25.40;84.80;;;;;;4900773;29;20092;-96
2022/09/13 17:10:04;;;;;;;3.08;1.10;;;25.30;84.60;;;;;;4919428;29;20032;-96
2022/09/13 17:12:39;;;;;;;1.63;0.90;;;25.30;84.40;;;;;;4920607;29;20036;-96
2022/09/13 17:15:07;;;;;;;2.83;0.80;;;25.30;84.40;;;;;;4906562;29;20035;-96
2022/09/13 17:17:35;;;;;;;4.80;1.20;;;25.30;84.40;;;;;;4904943;29;20045;-96
2022/09/13 17:20:09;;;;;;;3.83;1.30;;;25.20;84.20;;;;;;4904327;29;20091;-96
2022/09/13 17:22:40;;;;;;;6.90;0.90;;;25.20;84.30;;;;;;4901306;29;20060;-96
2022/09/13 17:25:07;;;;;;;4.47;1.20;;;25.10;84.20;;;;;;4892396;29;20104;-96
2022/09/13 17:27:35;;;;;;;4.82;1.23;;;25.10;84.00;;;;;;4892308;29;20111;-96
2022/09/13 17:30:03;;;;;;;4.60;0.90;;;25.10;84.10;;;;;;4906248;29;20057;-96
2022/09/13 17:32:38;;;;;;;5.88;1.00;;;25.00;84.10;;;;;;4888563;29;20029;-95
2022/09/13 17:35:05;;;;;;;13.25;1.83;;;24.90;84.00;;;;;;4888594;29;20076;-96
2022/09/13 17:37:33;;;;;;;4.75;1.35;;;24.90;83.90;;;;;;4903193;29;20029;-96
2022/09/13 17:39:59;;;;;;;5.85;1.25;;;24.90;83.50;;;;;;4889377;29;20028;-96
2022/09/13 17:42:27;;;;;;;7.10;1.45;;;24.80;83.50;;;;;;4903479;29;20024;-96
2022/09/13 17:44:53;;;;;;;6.85;1.33;;;24.80;83.60;;;;;;4888507;29;20037;-96
2022/09/13 17:47:18;;;;;;;7.50;1.40;;;24.80;83.40;;;;;;4887785;29;20035;-96
2022/09/13 17:49:47;;;;;;;3.92;1.00;;;24.70;83.30;;;;;;4906018;29;20465;-94
2022/09/13 17:52:15;;;;;;;3.38;0.98;;;24.70;83.50;;;;;;4901935;29;20064;-95
2022/09/13 17:54:41;;;;;;;3.65;0.80;;;24.60;83.30;;;;;;4889465;29;20131;-96
2022/09/13 17:57:10;;;;;;;4.40;1.00;;;24.60;83.00;;;;;;4888703;29;20485;-96
2022/09/13 17:59:37;;;;;;;4.78;1.23;;;24.50;82.90;;;;;;4888265;29;20028;-95
2022/09/13 18:02:05;;;;;;;3.97;1.13;;;24.50;82.60;;;;;;4904158;29;20052;-96
2022/09/13 18:04:38;;;;;;;5.50;1.27;;;24.50;82.50;;;;;;4889285;29;20118;-96
2022/09/13 18:07:07;;;;;;;4.07;1.00;;;24.40;82.10;;;;;;4904911;29;20080;-96
2022/09/13 18:09:42;;;;;;;6.78;0.80;;;24.40;82.20;;;;;;4898902;29;20025;-94
2022/09/13 18:12:10;;;;;;;2.83;0.80;;;24.30;82.00;;;;;;4924553;28;20019;-96
2022/09/13 18:14:36;;;;;;;3.53;1.15;;;24.30;82.00;;;;;;4926058;29;20012;-95
2022/09/13 18:17:11;;;;;;;3.25;0.98;;;24.20;82.00;;;;;;4901735;29;20032;-96
2022/09/13 18:19:41;;;;;;;5.68;1.30;;;24.20;82.10;;;;;;4892698;29;20381;-96
2022/09/13 18:22:08;;;;;;;4.95;1.17;;;24.20;82.00;;;;;;4891969;29;20032;-96
2022/09/13 18:24:35;;;;;;;4.15;0.88;;;24.10;82.40;;;;;;4907601;29;20207;-95
2022/09/13 18:27:01;;;;;;;4.63;0.88;;;24.10;82.10;;;;;;4891086;29;20024;-96
2022/09/13 18:29:30;;;;;;;3.78;1.10;;;24.10;82.30;;;;;;4889261;29;20111;-96
2022/09/13 18:31:56;;;;;;;4.05;1.00;;;24.00;82.40;;;;;;4889068;29;20032;-95
2022/09/13 18:34:28;;;;;;;2.88;0.90;;;24.00;82.50;;;;;;4889279;29;20048;-95
2022/09/13 18:36:54;;;;;;;4.57;1.40;;;23.90;82.30;;;;;;4905657;29;20132;-96
2022/09/13 18:39:21;;;;;;;5.03;1.10;;;23.90;82.50;;;;;;4905642;29;20028;-95
2022/09/13 18:41:47;;;;;;;4.47;0.90;;;23.90;82.30;;;;;;4889322;29;20032;-96
2022/09/13 18:44:17;;;;;;;4.53;1.20;;;23.80;82.10;;;;;;4889667;29;20060;-96
2022/09/13 18:46:44;;;;;;;4.90;1.00;;;23.80;82.20;;;;;;4889149;29;20190;-96
2022/09/13 18:49:28;;;;;;;5.47;1.30;;;23.80;82.00;;;;;;4890633;29;20029;-96
2022/09/13 18:51:54;;;;;;;4.18;1.17;;;23.70;81.30;;;;;;4889714;29;20060;-96
2022/09/13 18:54:20;;;;;;;4.72;1.20;;;23.70;81.50;;;;;;4890592;29;20039;-96
2022/09/13 18:56:46;;;;;;;9.20;1.40;;;23.70;81.90;;;;;;4890232;29;20604;-96
2022/09/13 18:59:15;;;;;;;3.20;1.10;;;23.60;82.00;;;;;;4890952;29;20039;-96
2022/09/13 19:01:43;;;;;;;1.85;0.90;;;23.60;82.10;;;;;;4890523;29;20052;-95
2022/09/13 19:04:18;;;;;;;2.90;0.95;;;23.60;82.10;;;;;;4890435;29;20068;-95
2022/09/13 19:06:47;;;;;;;5.03;1.05;;;23.50;82.10;;;;;;4889663;29;20033;-95
2022/09/13 19:09:18;;;;;;;4.30;1.00;;;23.50;82.40;;;;;;4890621;29;20029;-96
2022/09/13 19:11:46;;;;;;;5.93;1.30;;;23.50;82.50;;;;;;4890028;29;20021;-95
2022/09/13 19:14:20;;;;;;;6.13;1.48;;;23.50;82.50;;;;;;4890443;29;20021;-96
2022/09/13 19:16:46;;;;;;;3.58;1.40;;;23.40;82.30;;;;;;4891554;29;20036;-95
2022/09/13 19:19:12;;;;;;;6.55;1.65;;;23.40;82.60;;;;;;4892374;29;20040;-96
2022/09/13 19:21:38;;;;;;;3.55;1.20;;;23.40;82.60;;;;;;4900788;29;20053;-96
2022/09/13 19:24:05;;;;;;;3.58;1.30;;;23.30;82.60;;;;;;4894616;29;20075;-96
2022/09/13 19:26:37;;;;;;;3.70;1.13;;;23.30;82.60;;;;;;4891449;29;20029;-96
2022/09/13 19:29:10;;;;;;;4.65;1.17;;;23.30;82.60;;;;;;4894036;29;20039;-96
2022/09/13 19:31:56;;;;;;;4.28;1.30;;;23.30;82.60;;;;;;4906507;29;20025;-96
2022/09/13 19:34:25;;;;;;;5.43;1.45;;;23.30;82.80;;;;;;4907987;29;20104;-95
2022/09/13 19:36:56;;;;;;;5.10;1.40;;;23.20;82.70;;;;;;4907059;29;20041;-95
2022/09/13 19:39:21;;;;;;;;;;;23.20;83.00;;;;;;4889381;29;20024;-96
2022/09/13 19:41:47;;;;;;;5.30;1.13;;;23.20;83.20;;;;;;4889250;29;19914;-96
2022/09/13 19:44:16;;;;;;;4.68;1.35;;;23.10;83.40;;;;;;4890015;29;20020;-96
2022/09/13 19:46:42;;;;;;;4.70;1.20;;;23.10;83.60;;;;;;4906313;29;20025;-96
2022/09/13 19:49:12;;;;;;;7.30;1.50;;;23.00;83.80;;;;;;4892756;29;20051;-95
2022/09/13 19:51:42;;;;;;;4.30;1.52;;;23.10;83.80;;;;;;4890602;29;20049;-96
2022/09/13 19:54:14;;;;;;;5.07;1.20;;;23.00;83.80;;;;;;4890328;29;20027;-96
2022/09/13 19:56:52;;;;;;;8.63;1.67;;;23.00;83.90;;;;;;4892148;29;20033;-96
2022/09/13 19:59:24;;;;;;;7.45;1.45;;;22.90;84.20;;;;;;4891801;29;20031;-95
2022/09/13 20:01:49;;;;;;;7.15;1.70;;;22.90;84.20;;;;;;4891900;29;20068;-96
2022/09/13 20:04:18;;;;;;;6.07;1.45;;;22.90;84.50;;;;;;4893131;29;20029;-96
2022/09/13 20:06:48;;;;;;;6.60;1.40;;;22.90;84.80;;;;;;4907156;29;20032;-96
2022/09/13 20:09:16;;;;;;;6.60;1.55;;;22.90;84.70;;;;;;4891946;29;20084;-96
2022/09/13 20:11:47;;;;;;;5.38;1.40;;;22.80;84.60;;;;;;4890381;29;20025;-96
2022/09/13 20:14:16;;;;;;;7.47;1.50;;;22.80;84.60;;;;;;4890076;29;20025;-96
2022/09/13 20:16:47;;;;;;;5.70;1.35;;;22.80;84.20;;;;;;4891162;29;20031;-96
2022/09/13 20:19:18;;;;;;;5.60;1.50;;;22.70;84.20;;;;;;4891412;29;20032;-96
2022/09/13 20:21:51;;;;;;;5.47;1.20;;;22.70;84.20;;;;;;4891892;29;20396;-96
2022/09/13 20:24:24;;;;;;;5.53;1.58;;;22.70;84.30;;;;;;4894720;29;20119;-96
2022/09/13 20:26:52;;;;;;;5.53;1.35;;;22.60;84.00;;;;;;4891590;29;20079;-96
2022/09/13 20:29:24;;;;;;;8.52;1.48;;;22.60;83.90;;;;;;4892080;29;20052;-96
2022/09/13 20:31:50;;;;;;;4.18;1.30;;;22.60;84.10;;;;;;4908123;29;20051;-96
2022/09/13 20:34:25;;;;;;;4.78;1.50;;;22.50;84.30;;;;;;4908182;29;20041;-96
2022/09/13 20:36:58;;;;;;;3.55;1.30;;;22.50;84.50;;;;;;4892384;29;20385;-96
2022/09/13 20:39:24;;;;;;;6.35;1.05;;;22.50;84.40;;;;;;4891430;29;20029;-95
2022/09/13 20:41:55;;;;;;;6.85;1.27;;;22.50;84.30;;;;;;4907593;29;20063;-96
2022/09/13 20:44:31;;;;;;;4.80;0.98;;;22.40;84.20;;;;;;4895545;29;20032;-96
2022/09/13 20:46:57;;;;;;;7.50;1.75;;;22.40;84.10;;;;;;4911517;29;20067;-95
2022/09/13 20:49:27;;;;;;;7.15;1.38;;;22.30;84.00;;;;;;4890688;29;20013;-95
2022/09/13 20:51:58;;;;;;;5.72;1.02;;;22.30;84.00;;;;;;4966834;23;20080;-95
2022/09/13 20:54:27;;;;;;;7.72;1.30;;;22.30;84.10;;;;;;4918550;29;20017;-96
2022/09/13 20:56:56;;;;;;;5.40;1.30;;;22.20;84.00;;;;;;4931500;23;20052;-95
2022/09/13 20:59:27;;;;;;;8.32;1.50;;;22.20;83.80;;;;;;4922205;29;20032;-96
2022/09/13 21:01:58;;;;;;;6.65;1.50;;;22.20;83.80;;;;;;4921683;29;20029;-95
2022/09/13 21:04:26;;;;;;;5.60;1.17;;;22.20;84.00;;;;;;4906244;29;20048;-96
2022/09/13 21:10:02;;;;;;;3.78;1.10;;;22.10;84.30;;;;;;4922665;29;20049;-94
2022/09/13 21:12:29;;;;;;;5.72;1.20;;;22.10;84.40;;;;;;4901310;29;20037;-96
2022/09/13 21:14:58;;;;;;;5.65;1.50;;;22.10;84.50;;;;;;4892697;29;20024;-96